Waupun, Wisconsin
Current Conditions -  °F | °C
As of 3:55 AM on Sunday 25 Jan 2015 (Local Time) from KUNU Reporting Station
Overcast Overcast  
Wind Chill: 13°   Ceiling: 1400
Heat Index: 25°   Visibility: 10mi
Dew Point: 20°   Wind: 15mph
Humidity: 82%   Direction: 40°NE
Pressure: 29.78"   Gusts: 23mph
Location:  43.63°N, 88.73°W
Report Text: KUNU 250955Z AUTO 04013G20KT 10SM OVC014 M04/M06 A2978 RMK AO2 T10381065
Loading
Personal Weather Stations






























Interactive Weather Map New forecast layout! Learn more

10-Day Weather Forecast

Advertisements
Track Severe Weather on mobile